Time;durP1;ratioP1;P1;durP2;ratioP2;P2;SDS_P1;SDS_P2;PMS_P1;PMS_P2;Temp;Humidity;BMP_temperature;BMP_pressure;BME280_temperature;BME280_humidity;BME280_pressure;Samples;Min_cycle;Max_cycle;Signal;HPM_P1;HPM_P2
2023/04/29 00:01:24;;;;;;;6.85;3.60;;;;;;;;;;5082225;28;20203;-44
2023/04/29 00:03:52;;;;;;;6.70;2.80;;;;;;;;;;5093999;28;20581;-45
2023/04/29 00:06:20;;;;;;;9.43;2.78;;;;;;;;;;5094553;28;20656;-46
2023/04/29 00:08:48;;;;;;;5.60;2.47;;;;;;;;;;5094379;28;20655;-44
2023/04/29 00:11:15;;;;;;;3.65;2.20;;;;;;;;;;5094102;28;20198;-44
2023/04/29 00:13:42;;;;;;;3.75;2.78;;;;;;;;;;5094007;28;20202;-44
2023/04/29 00:16:09;;;;;;;4.85;2.67;;;;;;;;;;5093924;28;20670;-44
2023/04/29 00:18:37;;;;;;;6.43;3.55;;;;;;;;;;5094225;28;20267;-44
2023/04/29 00:21:07;;;;;;;5.45;3.00;;;;;;;;;;5094463;28;20199;-45
2023/04/29 00:23:35;;;;;;;5.45;2.75;;;;;;;;;;5094177;28;20206;-45
2023/04/29 00:26:02;;;;;;;4.38;2.60;;;;;;;;;;5093751;28;20237;-45
2023/04/29 00:28:29;;;;;;;4.43;2.63;;;;;;;;;;5094106;28;20206;-44
2023/04/29 00:30:56;;;;;;;3.75;2.45;;;;;;;;;;5093682;28;20214;-44
2023/04/29 00:33:24;;;;;;;6.00;3.03;;;;;;;;;;5094086;28;20207;-44
2023/04/29 00:35:51;;;;;;;3.40;2.50;;;;;;;;;;5092806;28;20214;-45
2023/04/29 00:38:20;;;;;;;8.05;3.45;;;;;;;;;;5092831;28;20230;-45
2023/04/29 00:40:47;;;;;;;4.90;2.75;;;;;;;;;;5093653;28;20213;-44
2023/04/29 00:43:14;;;;;;;9.77;3.90;;;;;;;;;;5092399;28;20248;-46
2023/04/29 00:45:41;;;;;;;4.95;2.42;;;;;;;;;;5092547;28;20563;-44
2023/04/29 00:48:09;;;;;;;4.65;2.80;;;;;;;;;;5093500;28;20686;-44
2023/04/29 00:50:36;;;;;;;4.22;2.80;;;;;;;;;;5092622;28;20199;-44
2023/04/29 00:53:04;;;;;;;6.05;2.92;;;;;;;;;;5093299;28;20240;-44
2023/04/29 00:55:32;;;;;;;6.35;3.15;;;;;;;;;;5076101;28;20207;-45
2023/04/29 00:58:01;;;;;;;7.15;3.42;;;;;;;;;;5093463;28;20210;-44
2023/04/29 01:00:29;;;;;;;8.45;4.40;;;;;;;;;;5092568;28;20281;-44
2023/04/29 01:02:58;;;;;;;4.30;2.75;;;;;;;;;;5092509;28;20206;-44
2023/04/29 01:05:26;;;;;;;4.32;2.58;;;;;;;;;;5092220;28;20245;-44
2023/04/29 01:08:27;;;;;;;4.55;2.30;;;;;;;;;;5092177;28;20210;-44
2023/04/29 01:11:07;;;;;;;6.82;3.00;;;;;;;;;;5093611;28;20182;-44
2023/04/29 01:13:59;;;;;;;3.53;2.20;;;;;;;;;;5092595;28;20191;-44
2023/04/29 01:16:30;;;;;;;4.90;3.08;;;;;;;;;;5092030;28;20201;-45
2023/04/29 01:19:20;;;;;;;4.53;2.80;;;;;;;;;;5092416;28;20189;-44
2023/04/29 01:21:48;;;;;;;9.80;4.50;;;;;;;;;;5093535;28;20229;-44
2023/04/29 01:24:15;;;;;;;12.55;5.57;;;;;;;;;;5093139;28;20226;-44
2023/04/29 01:26:56;;;;;;;5.38;2.67;;;;;;;;;;5092095;28;20194;-44
2023/04/29 01:29:57;;;;;;;7.07;2.95;;;;;;;;;;5089597;28;20199;-46
2023/04/29 01:32:42;;;;;;;6.30;2.97;;;;;;;;;;5075290;28;20187;-44
2023/04/29 01:35:25;;;;;;;4.90;2.50;;;;;;;;;;5091934;28;20667;-46
2023/04/29 01:38:08;;;;;;;5.70;2.67;;;;;;;;;;5075381;28;20222;-45
2023/04/29 01:41:12;;;;;;;5.32;3.22;;;;;;;;;;5092171;28;20211;-46
2023/04/29 01:43:42;;;;;;;7.20;3.03;;;;;;;;;;5076124;28;20200;-44
2023/04/29 01:46:20;;;;;;;4.13;2.70;;;;;;;;;;5091762;28;20222;-45
2023/04/29 01:48:53;;;;;;;14.32;5.10;;;;;;;;;;5092187;28;20207;-45
2023/04/29 01:51:20;;;;;;;8.05;3.47;;;;;;;;;;5092194;28;20183;-44
2023/04/29 01:53:48;;;;;;;4.15;3.13;;;;;;;;;;5093267;28;20202;-45
2023/04/29 01:56:17;;;;;;;5.05;2.90;;;;;;;;;;5091662;28;20688;-45
2023/04/29 01:59:16;;;;;;;5.10;2.60;;;;;;;;;;5080635;28;20214;-45
2023/04/29 02:02:06;;;;;;;5.88;3.00;;;;;;;;;;5091823;28;20194;-44
2023/04/29 02:04:38;;;;;;;4.20;2.83;;;;;;;;;;5092205;28;20253;-44
2023/04/29 02:07:06;;;;;;;4.95;2.97;;;;;;;;;;5095770;28;20202;-47
2023/04/29 02:09:33;;;;;;;6.55;3.28;;;;;;;;;;5095740;28;20198;-44
2023/04/29 02:12:07;;;;;;;4.03;2.95;;;;;;;;;;5095182;28;20190;-45
2023/04/29 02:14:35;;;;;;;4.75;2.70;;;;;;;;;;5095345;28;20210;-44
2023/04/29 02:17:04;;;;;;;4.25;2.75;;;;;;;;;;5095190;28;20202;-44
2023/04/29 02:19:31;;;;;;;6.35;3.33;;;;;;;;;;5095073;28;20202;-44
2023/04/29 02:21:59;;;;;;;5.18;2.95;;;;;;;;;;5095584;28;20561;-45
2023/04/29 02:24:26;;;;;;;5.68;3.20;;;;;;;;;;5095034;28;20199;-44
2023/04/29 02:26:54;;;;;;;4.22;3.00;;;;;;;;;;5094835;28;20221;-45
2023/04/29 02:29:22;;;;;;;3.83;2.55;;;;;;;;;;5094867;28;20282;-44
2023/04/29 02:31:49;;;;;;;7.55;4.90;;;;;;;;;;5094548;28;20205;-46
2023/04/29 02:34:16;;;;;;;43.13;16.25;;;;;;;;;;5094478;28;20659;-45
2023/04/29 02:36:44;;;;;;;26.50;10.40;;;;;;;;;;5094859;28;20218;-45
2023/04/29 02:39:11;;;;;;;15.27;6.15;;;;;;;;;;5094333;28;20227;-45
2023/04/29 02:41:38;;;;;;;4.70;2.85;;;;;;;;;;5095618;28;20210;-44
2023/04/29 02:44:05;;;;;;;9.25;3.40;;;;;;;;;;5094298;28;20256;-44
2023/04/29 02:46:35;;;;;;;4.40;2.38;;;;;;;;;;5094436;28;20230;-45
2023/04/29 02:49:02;;;;;;;4.47;2.97;;;;;;;;;;5095639;28;20223;-44
2023/04/29 02:51:30;;;;;;;4.88;2.67;;;;;;;;;;5094373;28;20213;-44
2023/04/29 02:53:57;;;;;;;4.53;2.67;;;;;;;;;;5094292;28;20203;-45
2023/04/29 02:56:24;;;;;;;5.35;2.75;;;;;;;;;;5095524;28;20203;-44
2023/04/29 02:58:51;;;;;;;7.00;3.13;;;;;;;;;;5095102;28;20646;-44
2023/04/29 03:01:19;;;;;;;4.93;2.65;;;;;;;;;;5094211;28;20199;-44
2023/04/29 03:03:46;;;;;;;6.47;3.35;;;;;;;;;;5093929;28;20659;-45
2023/04/29 03:06:14;;;;;;;4.53;2.70;;;;;;;;;;5093976;28;20615;-44
2023/04/29 03:08:42;;;;;;;5.40;3.33;;;;;;;;;;5093811;28;20203;-45
2023/04/29 03:11:09;;;;;;;5.70;3.20;;;;;;;;;;5094903;28;20679;-45
2023/04/29 03:13:37;;;;;;;7.35;3.42;;;;;;;;;;5093778;28;20199;-45
2023/04/29 03:16:06;;;;;;;5.80;3.10;;;;;;;;;;5093388;28;20213;-45
2023/04/29 03:18:33;;;;;;;6.78;3.50;;;;;;;;;;5088255;28;20234;-44
2023/04/29 03:21:03;;;;;;;5.68;3.05;;;;;;;;;;5089538;28;20640;-44
2023/04/29 03:23:30;;;;;;;5.93;3.55;;;;;;;;;;5089280;28;20207;-45
2023/04/29 03:25:57;;;;;;;8.38;3.20;;;;;;;;;;5040475;28;20225;-44
2023/04/29 03:28:25;;;;;;;6.32;3.47;;;;;;;;;;5092384;28;20206;-44
2023/04/29 03:30:52;;;;;;;4.93;3.15;;;;;;;;;;5093571;28;20190;-46
2023/04/29 03:33:19;;;;;;;9.20;5.05;;;;;;;;;;5093002;28;20202;-44
2023/04/29 03:35:47;;;;;;;9.55;4.53;;;;;;;;;;5092007;28;20207;-46
2023/04/29 03:38:16;;;;;;;5.97;3.58;;;;;;;;;;5093240;28;20222;-47
2023/04/29 03:40:45;;;;;;;5.10;2.97;;;;;;;;;;5092415;28;20199;-45
2023/04/29 03:43:13;;;;;;;5.25;3.10;;;;;;;;;;5067596;28;20242;-45
2023/04/29 03:45:41;;;;;;;6.47;2.75;;;;;;;;;;5092029;28;20215;-44
2023/04/29 03:48:08;;;;;;;5.13;2.55;;;;;;;;;;5091884;28;20662;-44
2023/04/29 03:50:36;;;;;;;4.35;2.80;;;;;;;;;;5093051;28;20323;-44
2023/04/29 03:53:03;;;;;;;6.55;3.00;;;;;;;;;;5091791;28;20187;-46
2023/04/29 03:55:30;;;;;;;6.07;3.10;;;;;;;;;;5092053;28;20256;-44
2023/04/29 03:57:58;;;;;;;3.78;2.53;;;;;;;;;;5092048;28;20191;-43
2023/04/29 04:00:29;;;;;;;6.75;3.28;;;;;;;;;;5092033;28;20199;-43
2023/04/29 04:02:58;;;;;;;6.68;3.10;;;;;;;;;;5089066;28;20190;-45
2023/04/29 04:05:29;;;;;;;7.43;3.08;;;;;;;;;;5091651;28;20222;-44
2023/04/29 04:08:02;;;;;;;4.25;2.80;;;;;;;;;;5089625;28;20666;-45
2023/04/29 04:10:35;;;;;;;3.83;2.80;;;;;;;;;;5092709;28;20190;-45
2023/04/29 04:13:08;;;;;;;5.15;3.00;;;;;;;;;;5067250;28;20230;-44
2023/04/29 04:15:36;;;;;;;5.13;2.83;;;;;;;;;;5073379;28;20202;-45
2023/04/29 04:18:03;;;;;;;5.25;3.08;;;;;;;;;;5072486;28;20199;-46
2023/04/29 04:20:30;;;;;;;7.40;3.10;;;;;;;;;;5072707;28;20268;-45
2023/04/29 04:22:58;;;;;;;4.63;2.45;;;;;;;;;;5106535;28;20289;-46
2023/04/29 04:25:29;;;;;;;5.63;3.20;;;;;;;;;;5072807;28;20211;-46
2023/04/29 04:28:06;;;;;;;5.95;2.95;;;;;;;;;;5105574;28;20203;-45
2023/04/29 04:30:52;;;;;;;3.47;2.47;;;;;;;;;;5111729;27;20202;-46
2023/04/29 04:33:19;;;;;;;5.00;2.78;;;;;;;;;;5093663;28;20552;-46
2023/04/29 04:35:46;;;;;;;7.13;3.33;;;;;;;;;;5092596;28;20206;-45
2023/04/29 04:38:14;;;;;;;4.03;2.50;;;;;;;;;;5092956;28;20242;-45
2023/04/29 04:40:41;;;;;;;3.53;2.47;;;;;;;;;;5091376;28;20201;-46
2023/04/29 04:43:23;;;;;;;5.13;2.97;;;;;;;;;;5089552;28;20195;-45
2023/04/29 04:45:51;;;;;;;4.25;2.67;;;;;;;;;;5091169;28;20214;-44
2023/04/29 04:48:18;;;;;;;4.55;3.10;;;;;;;;;;5091101;28;20191;-45
2023/04/29 04:50:49;;;;;;;6.40;3.30;;;;;;;;;;5090883;28;20724;-44
2023/04/29 04:53:16;;;;;;;4.32;2.50;;;;;;;;;;5090851;28;20719;-45
2023/04/29 04:55:54;;;;;;;3.55;2.28;;;;;;;;;;5088215;28;20296;-45
2023/04/29 04:58:21;;;;;;;4.28;2.90;;;;;;;;;;5091030;28;20194;-46
2023/04/29 05:00:50;;;;;;;4.47;2.90;;;;;;;;;;5090846;28;20666;-46
2023/04/29 05:03:17;;;;;;;4.35;2.70;;;;;;;;;;5087221;28;20238;-44
2023/04/29 05:05:45;;;;;;;5.50;3.13;;;;;;;;;;5089507;28;20238;-45
2023/04/29 05:08:12;;;;;;;6.28;2.88;;;;;;;;;;5091024;28;20191;-46
2023/04/29 05:10:44;;;;;;;5.20;2.97;;;;;;;;;;5089633;28;20226;-44
2023/04/29 05:13:11;;;;;;;4.82;3.00;;;;;;;;;;5091693;28;20202;-44
2023/04/29 05:15:39;;;;;;;6.43;2.72;;;;;;;;;;5083999;28;20227;-44
2023/04/29 05:18:08;;;;;;;4.53;2.83;;;;;;;;;;5078039;28;20766;-44
2023/04/29 05:20:35;;;;;;;5.45;3.05;;;;;;;;;;5091148;28;20218;-44
2023/04/29 05:23:03;;;;;;;5.63;2.78;;;;;;;;;;5091455;28;20218;-44
2023/04/29 05:25:36;;;;;;;6.55;2.88;;;;;;;;;;5087630;28;20264;-44
2023/04/29 05:28:04;;;;;;;3.85;2.60;;;;;;;;;;5087189;28;20257;-46
2023/04/29 05:30:33;;;;;;;3.85;2.75;;;;;;;;;;5091030;28;20265;-45
2023/04/29 05:33:00;;;;;;;4.63;2.83;;;;;;;;;;5091183;28;20226;-45
2023/04/29 05:35:29;;;;;;;6.07;3.10;;;;;;;;;;5091321;28;20340;-45
2023/04/29 05:37:57;;;;;;;4.70;3.08;;;;;;;;;;5091636;28;20230;-44
2023/04/29 05:40:37;;;;;;;4.65;3.00;;;;;;;;;;5094880;28;20279;-46
2023/04/29 05:43:27;;;;;;;6.57;3.35;;;;;;;;;;5093192;28;20218;-44
2023/04/29 05:45:56;;;;;;;6.97;3.47;;;;;;;;;;5091198;28;20257;-46
2023/04/29 05:48:23;;;;;;;5.90;2.90;;;;;;;;;;5096230;28;20219;-45
2023/04/29 05:50:52;;;;;;;5.00;3.42;;;;;;;;;;5095236;28;20218;-45
2023/04/29 05:53:19;;;;;;;5.28;3.30;;;;;;;;;;5094788;28;20256;-46
2023/04/29 05:55:49;;;;;;;4.20;3.00;;;;;;;;;;5088849;28;20219;-44
2023/04/29 05:58:19;;;;;;;7.65;3.40;;;;;;;;;;5108558;28;20286;-47
2023/04/29 06:00:48;;;;;;;5.43;2.83;;;;;;;;;;5074412;28;20242;-46
2023/04/29 06:03:20;;;;;;;4.97;3.00;;;;;;;;;;5075506;28;20561;-46
2023/04/29 06:05:53;;;;;;;4.93;2.95;;;;;;;;;;5074671;28;20242;-48
2023/04/29 06:08:50;;;;;;;4.38;2.88;;;;;;;;;;5073729;28;20223;-44
2023/04/29 06:11:22;;;;;;;5.15;2.92;;;;;;;;;;5074050;28;20224;-44
2023/04/29 06:13:49;;;;;;;8.75;3.35;;;;;;;;;;5084663;28;20234;-45
2023/04/29 06:16:17;;;;;;;3.15;2.60;;;;;;;;;;5092823;28;20215;-45
2023/04/29 06:18:44;;;;;;;6.78;3.00;;;;;;;;;;5090925;28;20214;-45
2023/04/29 06:21:14;;;;;;;4.40;2.75;;;;;;;;;;5082870;28;20219;-46
2023/04/29 06:23:42;;;;;;;4.78;3.00;;;;;;;;;;5088062;28;20219;-47
2023/04/29 06:26:15;;;;;;;5.22;3.25;;;;;;;;;;5087883;28;20630;-48
2023/04/29 06:28:42;;;;;;;5.55;3.20;;;;;;;;;;5092399;28;20223;-48
2023/04/29 06:31:10;;;;;;;5.30;3.03;;;;;;;;;;5092065;28;20683;-48
2023/04/29 06:33:37;;;;;;;4.15;2.55;;;;;;;;;;5094696;28;20234;-48
2023/04/29 06:36:05;;;;;;;2.67;2.40;;;;;;;;;;5094150;28;20219;-47
2023/04/29 06:38:50;;;;;;;5.40;3.20;;;;;;;;;;5094861;28;20356;-48
2023/04/29 06:41:53;;;;;;;4.38;2.53;;;;;;;;;;5065148;28;20232;-47
2023/04/29 06:44:38;;;;;;;8.15;2.80;;;;;;;;;;5089409;28;20214;-47
2023/04/29 06:47:26;;;;;;;4.25;2.95;;;;;;;;;;5092458;28;20295;-47
2023/04/29 06:50:04;;;;;;;4.63;2.72;;;;;;;;;;5091774;28;20226;-48
2023/04/29 06:52:33;;;;;;;6.03;2.78;;;;;;;;;;5091857;28;20788;-49
2023/04/29 06:55:00;;;;;;;4.97;2.80;;;;;;;;;;5093838;28;20249;-48
2023/04/29 06:57:27;;;;;;;4.60;2.75;;;;;;;;;;5093378;28;20809;-49
2023/04/29 06:59:54;;;;;;;4.43;2.80;;;;;;;;;;5092400;28;20218;-48
2023/04/29 07:02:24;;;;;;;3.28;2.50;;;;;;;;;;5092784;28;20218;-48
2023/04/29 07:04:51;;;;;;;4.60;2.53;;;;;;;;;;5093715;28;20199;-48
2023/04/29 07:07:18;;;;;;;5.43;2.65;;;;;;;;;;5092704;28;20218;-48
2023/04/29 07:09:45;;;;;;;4.68;2.50;;;;;;;;;;5092090;28;20198;-49
2023/04/29 07:12:13;;;;;;;4.70;2.33;;;;;;;;;;5093787;28;20198;-48
2023/04/29 07:14:40;;;;;;;3.78;2.35;;;;;;;;;;5085307;28;20199;-49
2023/04/29 07:17:07;;;;;;;4.72;2.40;;;;;;;;;;5088225;28;20260;-48
2023/04/29 07:19:36;;;;;;;5.45;2.40;;;;;;;;;;5091884;28;20198;-48
2023/04/29 07:22:03;;;;;;;3.70;2.47;;;;;;;;;;5092645;28;20198;-49
2023/04/29 07:24:30;;;;;;;3.30;2.10;;;;;;;;;;5092615;28;20202;-48
2023/04/29 07:26:57;;;;;;;4.38;2.53;;;;;;;;;;5092075;28;20222;-48
2023/04/29 07:29:24;;;;;;;3.33;2.35;;;;;;;;;;5093358;28;20206;-49
2023/04/29 07:31:52;;;;;;;2.78;1.88;;;;;;;;;;5094348;28;20248;-49
2023/04/29 07:34:19;;;;;;;5.68;2.08;;;;;;;;;;5093440;28;20539;-49
2023/04/29 07:36:46;;;;;;;3.90;2.17;;;;;;;;;;5093518;28;20263;-48
2023/04/29 07:39:15;;;;;;;4.47;2.53;;;;;;;;;;5094509;28;20636;-49
2023/04/29 07:41:45;;;;;;;2.97;1.88;;;;;;;;;;5093422;28;20191;-49
2023/04/29 07:44:12;;;;;;;3.58;2.30;;;;;;;;;;5093133;28;20667;-50
2023/04/29 07:46:40;;;;;;;5.55;1.92;;;;;;;;;;5092732;28;20222;-49
2023/04/29 07:49:07;;;;;;;3.30;2.25;;;;;;;;;;5093436;28;20203;-50
2023/04/29 07:51:36;;;;;;;2.78;2.17;;;;;;;;;;5093130;28;20198;-50
2023/04/29 07:54:03;;;;;;;4.70;2.20;;;;;;;;;;5094456;28;20199;-49
2023/04/29 07:56:30;;;;;;;4.47;2.10;;;;;;;;;;5090335;28;20203;-49
2023/04/29 07:59:00;;;;;;;3.95;2.28;;;;;;;;;;5094306;28;20214;-49
2023/04/29 08:01:27;;;;;;;7.30;2.55;;;;;;;;;;5092792;28;20194;-49
2023/04/29 08:03:54;;;;;;;8.10;2.00;;;;;;;;;;5087729;28;20293;-51
2023/04/29 08:06:23;;;;;;;2.92;2.08;;;;;;;;;;5082800;28;20288;-50
2023/04/29 08:08:50;;;;;;;5.22;2.08;;;;;;;;;;5092901;28;20199;-51
2023/04/29 08:11:19;;;;;;;3.20;1.92;;;;;;;;;;5093419;28;20198;-49
2023/04/29 08:13:47;;;;;;;5.15;2.33;;;;;;;;;;5092202;28;20245;-51
2023/04/29 08:16:16;;;;;;;2.42;1.90;;;;;;;;;;5088616;28;20203;-49
2023/04/29 08:18:43;;;;;;;4.10;2.10;;;;;;;;;;5090704;28;20266;-49
2023/04/29 08:21:11;;;;;;;3.58;1.88;;;;;;;;;;5091205;28;20673;-51
2023/04/29 08:23:39;;;;;;;3.78;2.05;;;;;;;;;;5093696;28;20213;-48
2023/04/29 08:26:06;;;;;;;5.00;1.98;;;;;;;;;;5093945;28;20252;-49
2023/04/29 08:28:33;;;;;;;2.45;1.48;;;;;;;;;;5092918;28;20222;-49
2023/04/29 08:31:01;;;;;;;2.33;1.63;;;;;;;;;;5092980;28;20207;-51
2023/04/29 08:33:28;;;;;;;1.83;1.65;;;;;;;;;;5090734;28;20213;-50
2023/04/29 08:36:02;;;;;;;3.65;1.80;;;;;;;;;;5087359;28;20206;-49
2023/04/29 08:38:29;;;;;;;2.30;1.40;;;;;;;;;;5093556;28;20330;-49
2023/04/29 08:40:57;;;;;;;2.78;1.83;;;;;;;;;;5093258;28;20209;-49
2023/04/29 08:43:26;;;;;;;4.47;2.03;;;;;;;;;;5093782;28;20195;-50
2023/04/29 08:45:54;;;;;;;3.85;1.80;;;;;;;;;;5093341;28;20206;-49
2023/04/29 08:48:21;;;;;;;6.95;1.70;;;;;;;;;;5093094;28;20305;-49
2023/04/29 08:50:49;;;;;;;3.92;1.90;;;;;;;;;;5093077;28;20691;-51
2023/04/29 08:53:16;;;;;;;2.72;1.83;;;;;;;;;;5093318;28;20191;-51
2023/04/29 08:55:45;;;;;;;2.53;1.50;;;;;;;;;;5093587;28;20198;-52
2023/04/29 08:58:14;;;;;;;3.58;1.90;;;;;;;;;;5086128;28;20199;-50
2023/04/29 09:00:42;;;;;;;2.95;1.70;;;;;;;;;;5073195;28;20199;-51
2023/04/29 09:04:05;;;;;;;2.08;1.67;;;;;;;;;;5090331;28;20195;-50
2023/04/29 09:06:33;;;;;;;2.53;1.85;;;;;;;;;;4970189;28;20226;-51
2023/04/29 09:09:01;;;;;;;5.72;1.77;;;;;;;;;;4947762;29;20204;-49
2023/04/29 09:11:29;;;;;;;2.58;1.75;;;;;;;;;;4964055;28;20206;-48
2023/04/29 09:14:00;;;;;;;2.42;1.60;;;;;;;;;;4969110;28;20225;-49
2023/04/29 09:16:28;;;;;;;3.78;1.70;;;;;;;;;;4959521;28;20707;-50
2023/04/29 09:18:55;;;;;;;3.65;2.00;;;;;;;;;;4974433;28;20289;-51
2023/04/29 09:21:26;;;;;;;2.58;1.40;;;;;;;;;;4974303;28;20206;-47
2023/04/29 09:23:55;;;;;;;2.40;1.45;;;;;;;;;;4973308;28;20218;-46
2023/04/29 09:26:23;;;;;;;3.25;1.40;;;;;;;;;;4967369;28;20210;-50
2023/04/29 09:29:10;;;;;;;3.88;1.63;;;;;;;;;;4967431;28;20703;-47
2023/04/29 09:31:38;;;;;;;2.17;1.50;;;;;;;;;;4974479;28;20210;-48
2023/04/29 09:34:06;;;;;;;2.92;1.58;;;;;;;;;;4974248;28;20549;-51
2023/04/29 09:36:37;;;;;;;4.03;1.73;;;;;;;;;;4975160;28;20210;-48
2023/04/29 09:39:10;;;;;;;4.90;1.65;;;;;;;;;;4975943;28;20230;-46
2023/04/29 09:41:53;;;;;;;1.35;1.17;;;;;;;;;;4992578;28;20197;-46
2023/04/29 09:44:26;;;;;;;3.90;1.73;;;;;;;;;;5080295;28;20199;-48
2023/04/29 09:47:01;;;;;;;3.22;1.48;;;;;;;;;;5095930;28;20225;-51
2023/04/29 09:49:31;;;;;;;3.03;1.23;;;;;;;;;;5095342;28;20197;-47
2023/04/29 09:52:01;;;;;;;2.92;1.40;;;;;;;;;;5096467;28;20268;-48
2023/04/29 09:54:29;;;;;;;2.60;1.60;;;;;;;;;;5093807;28;20198;-49
2023/04/29 09:56:58;;;;;;;3.13;1.73;;;;;;;;;;5094366;28;20264;-48
2023/04/29 09:59:25;;;;;;;2.85;1.67;;;;;;;;;;5094372;28;20202;-47
2023/04/29 10:01:54;;;;;;;2.88;1.35;;;;;;;;;;5094844;28;20205;-48
2023/04/29 10:04:24;;;;;;;3.60;1.77;;;;;;;;;;5092879;28;20290;-46
2023/04/29 10:06:53;;;;;;;2.33;1.50;;;;;;;;;;5093189;28;20624;-47
2023/04/29 10:09:21;;;;;;;2.45;1.75;;;;;;;;;;5094389;28;20190;-50
2023/04/29 10:11:52;;;;;;;2.75;1.50;;;;;;;;;;5094240;28;20259;-47
2023/04/29 10:14:24;;;;;;;1.98;1.65;;;;;;;;;;5094135;28;20221;-50
2023/04/29 10:17:02;;;;;;;3.50;1.63;;;;;;;;;;5090619;28;20198;-46
2023/04/29 10:20:05;;;;;;;2.58;1.30;;;;;;;;;;5096350;28;20198;-47
2023/04/29 10:22:46;;;;;;;2.70;1.50;;;;;;;;;;5073703;28;20199;-47
2023/04/29 10:25:14;;;;;;;4.15;1.65;;;;;;;;;;5072710;28;20754;-48
2023/04/29 10:27:43;;;;;;;2.03;1.55;;;;;;;;;;5072508;28;20227;-47
2023/04/29 10:30:14;;;;;;;1.58;1.45;;;;;;;;;;5071071;28;20194;-47
2023/04/29 10:32:44;;;;;;;2.72;1.58;;;;;;;;;;5071225;28;20245;-48
2023/04/29 10:35:19;;;;;;;3.05;1.60;;;;;;;;;;5068781;28;20214;-47
2023/04/29 10:37:47;;;;;;;2.97;1.33;;;;;;;;;;5066603;28;20238;-51
2023/04/29 10:40:39;;;;;;;2.75;1.55;;;;;;;;;;5054200;28;20264;-53
2023/04/29 10:43:07;;;;;;;1.92;1.40;;;;;;;;;;5053273;28;20234;-53
2023/04/29 10:45:34;;;;;;;3.47;1.63;;;;;;;;;;5070619;28;20258;-52
2023/04/29 10:48:05;;;;;;;5.03;1.55;;;;;;;;;;5070697;28;20230;-52
2023/04/29 10:50:34;;;;;;;2.08;1.60;;;;;;;;;;5070579;28;20207;-52
2023/04/29 10:53:03;;;;;;;2.55;1.63;;;;;;;;;;5070290;28;20195;-53
2023/04/29 10:55:35;;;;;;;3.10;1.63;;;;;;;;;;5070794;28;20195;-54
2023/04/29 10:58:03;;;;;;;2.75;1.90;;;;;;;;;;5091405;28;20195;-53
2023/04/29 11:00:32;;;;;;;2.15;1.50;;;;;;;;;;5093588;28;20206;-52
2023/04/29 11:03:01;;;;;;;2.78;1.67;;;;;;;;;;5090369;28;20203;-50
2023/04/29 11:05:36;;;;;;;2.85;1.65;;;;;;;;;;5094955;28;20201;-54
2023/04/29 11:08:09;;;;;;;2.15;1.70;;;;;;;;;;5088598;28;20214;-51
2023/04/29 11:10:37;;;;;;;2.58;1.80;;;;;;;;;;5085973;28;20682;-51
2023/04/29 11:13:21;;;;;;;2.13;1.60;;;;;;;;;;5092535;28;20202;-53
2023/04/29 11:15:50;;;;;;;3.08;1.92;;;;;;;;;;5094091;28;20227;-51
2023/04/29 11:18:18;;;;;;;2.25;1.67;;;;;;;;;;5094247;28;20531;-53
2023/04/29 11:21:03;;;;;;;4.70;2.03;;;;;;;;;;5094488;28;20609;-54
2023/04/29 11:23:33;;;;;;;4.10;1.65;;;;;;;;;;5094624;28;20195;-51
2023/04/29 11:26:00;;;;;;;4.68;1.73;;;;;;;;;;5094487;28;20205;-53
2023/04/29 11:28:29;;;;;;;5.50;1.77;;;;;;;;;;5094041;28;20221;-53
2023/04/29 11:30:57;;;;;;;3.13;1.63;;;;;;;;;;5094271;28;20222;-53
2023/04/29 11:33:26;;;;;;;3.00;1.60;;;;;;;;;;5093939;28;20202;-54
2023/04/29 11:35:53;;;;;;;3.20;1.80;;;;;;;;;;5092529;28;20199;-51
2023/04/29 11:38:28;;;;;;;3.72;1.95;;;;;;;;;;5092027;28;20235;-53
2023/04/29 11:40:56;;;;;;;3.28;1.67;;;;;;;;;;5086211;28;20259;-48
2023/04/29 11:43:24;;;;;;;2.58;1.58;;;;;;;;;;5092782;28;20207;-50
2023/04/29 11:45:52;;;;;;;5.13;2.03;;;;;;;;;;5092483;28;20717;-48
2023/04/29 11:48:24;;;;;;;2.55;1.50;;;;;;;;;;5092317;28;20241;-54
2023/04/29 11:50:55;;;;;;;2.58;1.77;;;;;;;;;;5092379;28;20187;-53
2023/04/29 11:53:26;;;;;;;3.08;1.80;;;;;;;;;;5093317;28;20188;-52
2023/04/29 11:55:54;;;;;;;2.53;1.50;;;;;;;;;;5078054;28;20187;-54
2023/04/29 11:58:22;;;;;;;3.55;1.85;;;;;;;;;;5093707;28;20203;-55
2023/04/29 12:00:53;;;;;;;3.78;1.70;;;;;;;;;;5092357;28;20210;-49
2023/04/29 12:03:20;;;;;;;2.88;1.63;;;;;;;;;;5094229;28;20252;-51
2023/04/29 12:05:55;;;;;;;2.67;1.60;;;;;;;;;;5093142;28;20581;-49
2023/04/29 12:08:24;;;;;;;2.65;1.70;;;;;;;;;;5093843;28;20260;-54
2023/04/29 12:10:53;;;;;;;2.53;1.70;;;;;;;;;;5092525;28;20195;-54
2023/04/29 12:13:22;;;;;;;2.65;1.70;;;;;;;;;;5092998;28;20195;-54
2023/04/29 12:15:51;;;;;;;2.50;1.90;;;;;;;;;;5087735;28;20225;-54
2023/04/29 12:18:21;;;;;;;3.40;2.10;;;;;;;;;;5085212;28;21385;-51
2023/04/29 12:20:54;;;;;;;1.77;1.45;;;;;;;;;;5087545;28;20298;-52
2023/04/29 12:23:23;;;;;;;3.38;1.83;;;;;;;;;;5089931;28;20615;-54
2023/04/29 12:25:52;;;;;;;2.85;1.80;;;;;;;;;;5088674;28;20218;-52
2023/04/29 12:28:20;;;;;;;2.20;1.70;;;;;;;;;;5090565;28;20643;-48
2023/04/29 12:30:50;;;;;;;3.00;1.83;;;;;;;;;;5091344;28;20242;-54
2023/04/29 12:33:25;;;;;;;2.05;1.70;;;;;;;;;;5091513;28;20218;-48
2023/04/29 12:35:57;;;;;;;2.45;1.90;;;;;;;;;;5089781;28;20303;-49
2023/04/29 12:38:26;;;;;;;3.33;1.75;;;;;;;;;;5088090;28;20230;-46
2023/04/29 12:41:04;;;;;;;2.40;1.60;;;;;;;;;;5090040;28;20225;-48
2023/04/29 12:43:32;;;;;;;5.18;1.85;;;;;;;;;;5086421;28;20716;-51
2023/04/29 12:46:04;;;;;;;3.53;1.70;;;;;;;;;;5090269;28;20222;-50
2023/04/29 12:48:33;;;;;;;2.88;1.70;;;;;;;;;;5088200;28;20283;-52
2023/04/29 12:51:00;;;;;;;3.15;2.45;;;;;;;;;;5091082;28;20713;-50
2023/04/29 12:53:29;;;;;;;2.42;1.70;;;;;;;;;;5091373;28;20229;-50
2023/04/29 12:55:56;;;;;;;2.63;1.80;;;;;;;;;;5090843;28;20211;-50
2023/04/29 12:58:23;;;;;;;3.85;1.70;;;;;;;;;;5091072;28;20215;-52
2023/04/29 13:00:50;;;;;;;2.17;1.88;;;;;;;;;;5092522;28;20226;-52
2023/04/29 13:03:18;;;;;;;3.45;1.80;;;;;;;;;;5072419;28;20288;-50
2023/04/29 13:05:51;;;;;;;3.25;1.58;;;;;;;;;;5072917;28;20218;-51
2023/04/29 13:08:19;;;;;;;3.83;1.77;;;;;;;;;;5072167;28;20266;-51
2023/04/29 13:10:46;;;;;;;3.10;1.77;;;;;;;;;;5072545;28;20699;-49
2023/04/29 13:13:13;;;;;;;2.10;1.70;;;;;;;;;;5088692;28;20218;-48
2023/04/29 13:15:41;;;;;;;3.20;1.90;;;;;;;;;;5085752;28;20561;-52
2023/04/29 13:18:08;;;;;;;3.28;1.63;;;;;;;;;;5083363;28;20227;-47
2023/04/29 13:20:35;;;;;;;2.10;1.60;;;;;;;;;;5072303;28;20612;-47
2023/04/29 13:23:09;;;;;;;3.05;1.85;;;;;;;;;;5087505;28;20215;-48
2023/04/29 13:25:36;;;;;;;3.83;2.38;;;;;;;;;;5092489;28;20227;-47
2023/04/29 13:28:06;;;;;;;3.45;1.85;;;;;;;;;;5092291;28;20707;-48
2023/04/29 13:30:33;;;;;;;2.92;1.88;;;;;;;;;;5092163;28;20238;-47
2023/04/29 13:33:01;;;;;;;2.38;1.65;;;;;;;;;;5092414;28;20710;-48
2023/04/29 13:35:38;;;;;;;3.85;1.75;;;;;;;;;;5092754;28;20214;-47
2023/04/29 13:38:07;;;;;;;3.28;1.90;;;;;;;;;;5092160;28;20231;-47
2023/04/29 13:40:34;;;;;;;2.78;1.83;;;;;;;;;;5092732;28;20703;-47
2023/04/29 13:43:08;;;;;;;2.95;2.05;;;;;;;;;;5092223;28;20222;-47
2023/04/29 13:45:36;;;;;;;3.08;2.15;;;;;;;;;;5079196;28;20218;-49
2023/04/29 13:48:10;;;;;;;3.92;2.03;;;;;;;;;;5081963;28;20225;-51
2023/04/29 13:50:57;;;;;;;4.20;1.85;;;;;;;;;;5091291;28;20289;-49
2023/04/29 13:53:44;;;;;;;3.85;1.90;;;;;;;;;;5090641;28;20226;-48
2023/04/29 13:56:31;;;;;;;3.28;1.80;;;;;;;;;;5092378;28;20222;-47
2023/04/29 13:59:01;;;;;;;3.85;1.70;;;;;;;;;;5092166;28;20215;-49
2023/04/29 14:01:49;;;;;;;2.58;1.85;;;;;;;;;;5096463;28;20230;-38
2023/04/29 14:04:20;;;;;;;3.17;1.90;;;;;;;;;;5095946;28;20226;-37
2023/04/29 14:06:47;;;;;;;3.17;1.80;;;;;;;;;;5096308;28;20229;-40
2023/04/29 14:09:15;;;;;;;3.45;1.92;;;;;;;;;;5095277;28;20230;-41
2023/04/29 14:11:42;;;;;;;2.28;1.45;;;;;;;;;;5093721;28;20242;-41
2023/04/29 14:14:09;;;;;;;2.13;1.63;;;;;;;;;;5095970;28;20223;-40
2023/04/29 14:16:36;;;;;;;2.83;1.95;;;;;;;;;;5095456;28;20258;-40
2023/04/29 14:19:04;;;;;;;3.53;1.92;;;;;;;;;;5091630;28;20211;-40
2023/04/29 14:21:32;;;;;;;2.10;1.52;;;;;;;;;;5094273;28;20702;-41
2023/04/29 14:24:03;;;;;;;4.85;1.80;;;;;;;;;;5092022;28;20203;-39
2023/04/29 14:26:30;;;;;;;2.00;1.40;;;;;;;;;;5094526;28;20957;-39
2023/04/29 14:28:58;;;;;;;2.20;1.63;;;;;;;;;;5094712;28;20252;-39
2023/04/29 14:31:27;;;;;;;3.50;1.85;;;;;;;;;;5091922;28;20203;-40
2023/04/29 14:33:56;;;;;;;2.45;1.63;;;;;;;;;;5088807;28;20678;-40
2023/04/29 14:36:25;;;;;;;3.83;1.77;;;;;;;;;;5085807;28;20198;-40
2023/04/29 14:38:52;;;;;;;2.15;1.48;;;;;;;;;;5087536;28;20234;-40
2023/04/29 14:41:22;;;;;;;2.92;1.65;;;;;;;;;;5091095;28;20244;-40
2023/04/29 14:43:49;;;;;;;1.67;1.30;;;;;;;;;;5083668;28;20560;-40
2023/04/29 14:46:16;;;;;;;2.85;1.80;;;;;;;;;;5085689;28;20214;-39
2023/04/29 14:48:45;;;;;;;2.65;1.88;;;;;;;;;;5093420;28;20229;-40
2023/04/29 14:51:12;;;;;;;3.35;1.30;;;;;;;;;;5086224;28;20207;-40
2023/04/29 14:53:39;;;;;;;2.03;1.40;;;;;;;;;;5092133;28;20221;-39
2023/04/29 14:56:06;;;;;;;2.53;1.50;;;;;;;;;;5091940;28;20202;-39
2023/04/29 14:58:34;;;;;;;4.47;1.85;;;;;;;;;;5089290;28;20203;-40
2023/04/29 15:01:01;;;;;;;3.05;1.90;;;;;;;;;;5077214;28;20211;-41
2023/04/29 15:03:28;;;;;;;2.28;1.58;;;;;;;;;;5095141;28;20214;-40